Flight Track Log - Related Links

Times and Time Zones

All times are in EDT time to prevent confusion due to time zone crossing. See the N71AA flight status page for this flight to view local times or setup timezone preferences in your user account.

Time Position Orientation Groundspeed Altitude Reporting Facility
EDT Latitude Longitude Course Direction KTS MPH feet Rate Location/Type
Tue 12:48:24 PM 58.3667 -134.6667 131° Southeast 160 184 2,900  Level Anchorage Center
Tue 12:49:24 PM 58.3500 -134.7500 249° West 170 196 5,600 2,450 Climbing Anchorage Center
Tue 12:50:24 PM 58.3500 -134.8333 270° West 180 207 7,800 2,132 Climbing Anchorage Center
Tue 12:51:25 PM 58.3333 -134.9167 249° West 200 230 9,900 2,033 Climbing Anchorage Center
Tue 12:52:00 PM 58.1861 -135.2279 227° Southwest  Level FlightAware Approximate
Tue 12:52:25 PM 58.2833 -135.0000 221° Southwest 200 230 11,900  Level Anchorage Center
Tue 12:53:00 PM 58.1367 -135.1848 131° Southeast  Level FlightAware Approximate
Tue 12:53:25 PM 58.2667 -135.0667 245° Southwest 210 242 14,100  Level Anchorage Center
Tue 12:54:25 PM 58.2167 -135.1500 221° Southwest 200 230 16,100 1,450 Climbing Anchorage Center
Tue 12:55:25 PM 58.1667 -135.2167 215° Southwest 220 253 17,000 450 Climbing Anchorage Center
Tue 12:56:25 PM 58.1000 -135.1333 147° Southeast 280 322 17,000  Level Anchorage Center
Tue 12:57:25 PM 58.0500 -135.0000 125° Southeast 280 322 17,000  Level Anchorage Center
Tue 12:58:25 PM 58.0000 -134.9000 133° Southeast 290 334 17,000  Level Anchorage Center
Tue 12:59:25 PM 57.9500 -134.7833 129° Southeast 290 334 17,000  Level Anchorage Center
Tue 01:00:26 PM 57.9000 -134.6667 129° Southeast 280 322 17,000  Level Anchorage Center
Tue 01:01:26 PM 57.8333 -134.5500 137° Southeast 290 334 17,000  Level Anchorage Center
Tue 01:02:26 PM 57.7833 -134.4500 133° Southeast 290 334 17,000  Level Anchorage Center
Tue 01:03:26 PM 57.7333 -134.3333 129° Southeast 290 334 17,000  Level Anchorage Center
Tue 01:04:26 PM 57.6833 -134.2167 129° Southeast 290 334 17,000  Level Anchorage Center
Tue 01:05:26 PM 57.6167 -134.1167 141° Southeast 290 334 17,000  Level Anchorage Center
Tue 01:06:26 PM 57.5667 -134.0000 129° Southeast 290 334 17,000  Level Anchorage Center
Tue 01:07:26 PM 57.5167 -133.8833 129° Southeast 290 334 17,000 -550 Level Anchorage Center
Tue 01:08:26 PM 57.4500 -133.7667 137° Southeast 290 334 15,900 -1,100 Descending Anchorage Center
Tue 01:11:00 PM 57.3749 -133.6245 135° Southeast  Level FlightAware Approximate
Tue 01:18:00 PM 57.0156 -133.0992 158° South  Level FlightAware Approximate
Tue 01:19:00 PM 56.9523 -133.0517 158° South  Level FlightAware Approximate
Tue 01:20:00 PM 56.8959 -133.0008 162° South  Level FlightAware Approximate
Tue 01:21:00 PM 56.8318 -132.9571 158° South  Level FlightAware Approximate
Tue 01:22:00 PM 56.8000 -132.9333 158° South  Level FlightAware Approximate
Tue 01:23:00 PM 56.8015 -132.9462 158° South  Level Estimated
Tue 01:24:00 PM 56.8000 -132.9333 158° South  Level FlightAware Approximate
Tue 01:25:00 PM 56.8015 -132.9462 158° South  Level Estimated
Tue 01:26:00 PM 56.8000 -132.9333 158° South  Level FlightAware Approximate
Tue 01:27:00 PM 56.8015 -132.9462 158° South  Level Estimated
Tue 01:28:00 PM 56.8000 -132.9333 158° South  Level FlightAware Approximate
Tue 01:29:00 PM 56.8015 -132.9462 158° South  Level Estimated
Tue 01:30:00 PM 56.8000 -132.9333 158° South  Level FlightAware Approximate
Tue 01:31:00 PM 56.8015 -132.9462 158° South  Level Estimated
Tue 01:32:00 PM 56.8000 -132.9333 158° South  Level FlightAware Approximate
Tue 01:33:00 PM 56.8015 -132.9462 158° South  Level Estimated
Tue 01:34:00 PM 56.8000 -132.9333 158° South  Level FlightAware Approximate

Login

Don't have an account? Register now (free) for customized features, flight alerts, and more!